Time;durP1;ratioP1;P1;durP2;ratioP2;P2;SDS_P1;SDS_P2;PMS_P1;PMS_P2;Temp;Humidity;BMP_temperature;BMP_pressure;BME280_temperature;BME280_humidity;BME280_pressure;Samples;Min_cycle;Max_cycle;Signal;HPM_P1;HPM_P2
2021/04/30 00:01:08;;;;;;;1.60;0.85;;;;;;;18.08;46.10;101263.09;6287408;22;20039;-80
2021/04/30 00:03:33;;;;;;;1.60;0.68;;;;;;;18.09;45.95;101261.34;6287930;22;20016;-80
2021/04/30 00:05:59;;;;;;;2.80;0.95;;;;;;;18.08;45.97;101265.69;6288548;22;20133;-80
2021/04/30 00:08:24;;;;;;;2.78;0.80;;;;;;;18.09;45.73;101256.13;6242768;22;20091;-80
2021/04/30 00:10:50;;;;;;;1.98;0.80;;;;;;;18.07;46.06;101263.97;6266434;22;20008;-80
2021/04/30 00:13:16;;;;;;;0.90;0.68;;;;;;;18.07;45.88;101261.38;6264949;22;20003;-80
2021/04/30 00:15:41;;;;;;;1.58;0.80;;;;;;;18.09;45.82;101263.94;6266611;22;20411;-80
2021/04/30 00:18:07;;;;;;;1.58;0.82;;;;;;;18.09;46.04;101266.53;6241435;22;20073;-80
2021/04/30 00:20:34;;;;;;;1.80;0.85;;;;;;;18.09;45.96;101264.81;6291782;22;20007;-80
2021/04/30 00:23:00;;;;;;;1.45;0.90;;;;;;;18.08;45.51;101263.09;6238137;22;20011;-79
2021/04/30 00:25:26;;;;;;;1.90;0.82;;;;;;;18.07;45.99;101265.69;6263681;22;20000;-80
2021/04/30 00:27:52;;;;;;;1.65;0.88;;;;;;;18.06;46.06;101259.63;6292629;22;19995;-80
2021/04/30 00:30:19;;;;;;;1.42;0.55;;;;;;;18.09;45.96;101263.94;6294430;22;19999;-80
2021/04/30 00:32:46;;;;;;;0.93;0.57;;;;;;;18.07;45.85;101269.19;6289929;22;20083;-80
2021/04/30 00:35:12;;;;;;;1.63;0.77;;;;;;;18.05;45.93;101249.19;6236937;22;20089;-80
2021/04/30 00:37:38;;;;;;;1.55;0.80;;;;;;;18.05;45.83;101251.81;6289137;22;20474;-80
2021/04/30 00:40:08;;;;;;;1.38;0.80;;;;;;;18.06;46.01;101245.72;6290534;22;20007;-80
2021/04/30 00:42:35;;;;;;;1.52;0.80;;;;;;;18.05;45.92;101252.69;6290594;22;20011;-80
2021/04/30 00:45:01;;;;;;;1.00;0.75;;;;;;;18.07;45.72;101265.69;6290048;22;20000;-80
2021/04/30 00:47:29;;;;;;;1.45;0.70;;;;;;;18.05;46.04;101249.19;6291717;22;20008;-80
2021/04/30 00:50:00;;;;;;;0.93;0.60;;;;;;;18.05;45.87;101251.81;6293658;22;20026;-80
2021/04/30 00:52:25;;;;;;;1.45;0.65;;;;;;;18.03;45.71;101251.84;6294659;22;20002;-80
2021/04/30 00:54:51;;;;;;;2.10;0.77;;;;;;;18.06;45.73;101253.53;6292926;22;20003;-80
2021/04/30 00:57:16;;;;;;;1.10;0.65;;;;;;;18.04;45.83;101250.94;6297350;22;20026;-80
2021/04/30 00:59:42;;;;;;;1.63;0.80;;;;;;;18.02;45.74;101252.69;6296203;22;19996;-79
2021/04/30 01:02:09;;;;;;;1.15;0.70;;;;;;;18.03;45.79;101245.72;6295269;22;20023;-80
2021/04/30 01:04:50;;;;;;;1.52;0.80;;;;;;;18.05;45.87;101257.00;6277033;22;20016;-79
2021/04/30 01:07:24;;;;;;;1.42;0.60;;;;;;;18.05;45.75;101257.91;6305700;22;20003;-80
2021/04/30 01:13:16;;;;;;;1.00;0.77;;;;;;;18.05;45.87;101249.19;6306107;22;20069;-80
2021/04/30 01:15:42;;;;;;;1.25;0.60;;;;;;;18.02;45.72;101247.47;6278773;22;19991;-79
2021/04/30 01:21:51;;;;;;;0.95;0.60;;;;;;;18.02;45.78;101251.84;6375843;22;20013;-82
2021/04/30 01:27:40;;;;;;;1.40;0.75;;;;;;;18.01;46.00;101256.19;6399830;22;20012;-79
2021/04/30 01:56:47;;;;;;;1.58;0.73;;;;;;;17.98;45.82;101284.81;6267751;22;20864;-80
2021/04/30 01:59:12;;;;;;;1.58;0.82;;;;;;;17.99;45.79;101288.31;6327801;22;20082;-80
2021/04/30 02:01:39;;;;;;;1.00;0.60;;;;;;;17.98;45.87;101291.78;6355071;22;20011;-80
2021/04/30 02:04:10;;;;;;;1.27;0.70;;;;;;;17.97;45.84;101288.31;6357567;22;20002;-80
2021/04/30 02:06:40;;;;;;;0.95;0.68;;;;;;;17.99;45.80;101286.56;6302701;22;20607;-80
2021/04/30 02:09:07;;;;;;;2.53;0.93;;;;;;;17.98;45.99;101287.41;6355200;22;19999;-79
2021/04/30 02:11:34;;;;;;;1.83;0.70;;;;;;;17.95;45.89;101284.84;6354114;22;20010;-80
2021/04/30 02:13:59;;;;;;;1.90;0.90;;;;;;;17.96;45.87;101283.97;6326261;22;20333;-79
2021/04/30 02:19:48;;;;;;;2.22;0.90;;;;;;;17.96;45.73;101289.16;6357298;22;20021;-80
2021/04/30 02:32:04;;;;;;;1.75;0.70;;;;;;;17.97;45.93;101283.09;6361074;22;20064;-79
2021/04/30 02:38:01;;;;;;;1.42;0.80;;;;;;;17.98;46.08;101299.59;6359273;22;20828;-79
2021/04/30 02:40:45;;;;;;;2.17;0.80;;;;;;;17.95;46.00;101292.66;6342016;22;20018;-79
2021/04/30 02:47:30;;;;;;;1.90;0.95;;;;;;;17.95;45.71;101297.00;6301443;22;20023;-79
2021/04/30 02:56:36;;;;;;;1.13;0.80;;;;;;;17.95;45.70;101302.22;6286983;22;20351;-79
2021/04/30 02:59:05;;;;;;;1.17;0.68;;;;;;;17.93;45.84;101301.34;6232014;22;20046;-80
2021/04/30 03:01:30;;;;;;;2.55;0.90;;;;;;;17.91;45.77;101295.28;6261990;22;20027;-79
2021/04/30 03:03:56;;;;;;;1.15;0.80;;;;;;;17.94;45.92;101295.25;6262541;22;20030;-80
2021/04/30 03:06:23;;;;;;;1.33;0.70;;;;;;;17.93;46.11;101293.53;6286685;22;20485;-79
2021/04/30 03:08:52;;;;;;;1.42;0.75;;;;;;;17.91;45.68;101298.75;6258816;22;20091;-79
2021/04/30 03:11:19;;;;;;;2.80;0.90;;;;;;;17.93;45.95;101303.94;6286580;22;20312;-80
2021/04/30 03:13:45;;;;;;;1.25;0.75;;;;;;;17.92;45.78;101304.81;6286827;22;19995;-80
2021/04/30 03:16:10;;;;;;;1.38;0.85;;;;;;;17.92;45.78;101307.41;6286408;22;20087;-80
2021/04/30 03:18:37;;;;;;;0.93;0.57;;;;;;;17.92;45.88;101303.09;6260256;22;20046;-80
2021/04/30 03:21:03;;;;;;;1.55;0.77;;;;;;;17.92;45.77;101302.19;6284837;22;20010;-80
2021/04/30 03:23:30;;;;;;;1.23;0.70;;;;;;;17.93;45.90;101310.03;6284797;22;20063;-80
2021/04/30 03:25:56;;;;;;;1.33;0.80;;;;;;;17.91;45.96;101301.34;6260335;22;20065;-80
2021/04/30 03:28:23;;;;;;;1.67;0.70;;;;;;;17.91;45.88;101305.69;6270332;22;20003;-80
2021/04/30 03:30:48;;;;;;;3.22;0.80;;;;;;;17.90;46.05;101307.44;6289847;22;20007;-80
2021/04/30 03:37:24;;;;;;;1.20;0.77;;;;;;;17.92;45.92;101307.41;6362815;22;20017;-79
2021/04/30 03:43:42;;;;;;;1.27;0.80;;;;;;;17.90;45.88;101312.66;6395897;22;20029;-80
2021/04/30 03:49:35;;;;;;;0.75;0.50;;;;;;;17.90;45.88;101315.25;6395514;22;20036;-79
2021/04/30 03:52:09;;;;;;;1.30;0.80;;;;;;;17.87;46.01;101308.28;6353939;22;20021;-78
2021/04/30 03:57:59;;;;;;;1.80;0.90;;;;;;;17.87;45.95;101307.44;6365278;22;20074;-79
2021/04/30 04:02:58;;;;;;;1.33;0.80;;;;;;;17.86;46.08;101314.38;6332768;22;20000;-79
2021/04/30 04:05:37;;;;;;;1.08;0.65;;;;;;;17.87;45.74;101317.84;6326944;22;20033;-79
2021/04/30 04:08:08;;;;;;;1.30;0.70;;;;;;;17.86;45.90;101310.91;6365568;22;19987;-80
2021/04/30 04:17:16;;;;;;;1.13;0.70;;;;;;;17.85;45.75;101307.44;6367521;22;20014;-80
2021/04/30 04:19:48;;;;;;;2.35;0.77;;;;;;;17.85;46.15;101311.78;6366853;22;19999;-79
2021/04/30 04:28:32;;;;;;;0.98;0.70;;;;;;;17.87;45.97;101323.06;6354872;22;20010;-80
2021/04/30 04:31:30;;;;;;;1.75;0.68;;;;;;;17.85;45.98;101310.03;6367059;22;20071;-80
2021/04/30 04:34:15;;;;;;;1.23;0.70;;;;;;;17.87;45.97;101321.31;6303066;22;19995;-80
2021/04/30 04:36:43;;;;;;;1.90;0.70;;;;;;;17.89;45.95;101323.91;6267018;22;20034;-78
2021/04/30 04:45:11;;;;;;;1.23;0.70;;;;;;;17.86;45.93;101321.34;6348788;22;20106;-78
2021/04/30 04:47:47;;;;;;;0.98;0.70;;;;;;;17.89;45.77;101322.16;6366602;22;19999;-80
2021/04/30 04:54:01;;;;;;;1.38;0.80;;;;;;;17.89;45.87;101326.53;6366998;22;20010;-80
2021/04/30 05:00:26;;;;;;;1.23;0.70;;;;;;;17.95;45.63;101334.31;6305496;22;20010;-81
2021/04/30 05:13:07;;;;;;;4.85;1.00;;;;;;;18.12;45.97;101341.19;6396325;22;20052;-80
2021/04/30 05:15:33;;;;;;;3.83;1.00;;;;;;;18.17;45.83;101349.88;6361140;22;20021;-80
2021/04/30 05:17:59;;;;;;;5.00;1.08;;;;;;;18.19;45.77;101348.13;6390331;22;20006;-80
2021/04/30 05:20:24;;;;;;;5.45;1.20;;;;;;;18.19;45.54;101351.59;6387368;22;20002;-80
2021/04/30 05:22:50;;;;;;;3.92;1.83;;;;;;;18.20;45.98;101353.31;6386673;22;20006;-80
2021/04/30 05:25:16;;;;;;;5.03;1.98;;;;;;;18.14;45.98;101355.97;6359756;22;20002;-80
2021/04/30 05:27:42;;;;;;;5.95;2.17;;;;;;;18.12;45.85;101352.50;6387950;22;20365;-81
2021/04/30 05:30:12;;;;;;;7.72;2.97;;;;;;;18.16;46.36;101355.94;6384050;22;20089;-80
2021/04/30 05:32:37;;;;;;;10.40;2.90;;;;;;;18.21;46.47;101357.66;6383753;22;20488;-81
2021/04/30 05:35:04;;;;;;;9.60;3.10;;;;;;;18.29;46.22;101362.84;6386618;22;20043;-80
2021/04/30 05:37:32;;;;;;;8.02;3.30;;;;;;;18.30;46.35;101361.97;6387047;22;19999;-80
2021/04/30 05:39:59;;;;;;;7.10;2.70;;;;;;;18.31;46.27;101358.47;6387635;22;20002;-80
2021/04/30 05:42:26;;;;;;;7.97;2.78;;;;;;;18.34;46.16;101362.84;6394019;22;20013;-80
2021/04/30 05:44:53;;;;;;;4.93;2.55;;;;;;;18.37;46.50;101355.00;6398954;22;19986;-80
2021/04/30 05:47:19;;;;;;;8.50;2.60;;;;;;;18.41;46.64;101359.31;6390067;22;20048;-80
2021/04/30 05:49:45;;;;;;;6.05;2.40;;;;;;;18.47;46.11;101354.09;6386951;22;19990;-80
2021/04/30 05:52:10;;;;;;;6.45;2.55;;;;;;;18.52;46.15;101351.44;6361285;22;20475;-80
2021/04/30 05:54:37;;;;;;;6.18;2.90;;;;;;;18.58;46.32;101352.28;6359318;22;20006;-80
2021/04/30 05:57:03;;;;;;;4.88;2.63;;;;;;;18.64;46.18;101357.47;6384345;22;20055;-80
2021/04/30 05:59:29;;;;;;;5.47;2.67;;;;;;;18.71;45.87;101360.91;6383004;22;19999;-78
2021/04/30 06:01:54;;;;;;;4.82;2.60;;;;;;;18.88;45.79;101366.06;6385069;22;20006;-78
2021/04/30 06:04:19;;;;;;;6.47;2.50;;;;;;;19.11;45.22;101364.13;6380187;22;20018;-78
2021/04/30 06:06:51;;;;;;;8.60;2.65;;;;;;;19.29;44.84;101370.97;6376727;22;20314;-80
2021/04/30 06:09:17;;;;;;;6.57;2.65;;;;;;;19.27;44.53;101380.56;6348818;22;20010;-79
2021/04/30 06:11:43;;;;;;;4.97;2.17;;;;;;;19.21;44.95;101375.38;6375215;22;20006;-79
2021/04/30 06:14:10;;;;;;;6.00;2.10;;;;;;;19.22;44.92;101374.47;6375924;22;20007;-79
2021/04/30 06:16:35;;;;;;;6.68;2.38;;;;;;;19.09;45.13;101373.69;6376545;22;20014;-79
2021/04/30 06:19:02;;;;;;;3.42;2.15;;;;;;;19.02;45.47;101371.16;6379391;22;20053;-78
2021/04/30 06:21:27;;;;;;;4.85;2.40;;;;;;;18.93;45.76;101377.31;6381142;22;20421;-79
2021/04/30 06:23:54;;;;;;;4.38;2.20;;;;;;;18.87;45.75;101378.19;6379047;22;20010;-78
2021/04/30 06:26:21;;;;;;;4.53;2.10;;;;;;;18.88;45.75;101386.91;6380717;22;20055;-78
2021/04/30 06:28:46;;;;;;;3.63;2.20;;;;;;;18.85;46.11;101379.09;6379013;22;20022;-78
2021/04/30 06:31:12;;;;;;;4.40;2.03;;;;;;;18.85;46.43;101384.31;6381183;22;20002;-78
2021/04/30 06:33:38;;;;;;;4.75;1.95;;;;;;;18.82;46.25;101387.81;6380596;22;20093;-78
2021/04/30 06:36:05;;;;;;;6.03;2.30;;;;;;;18.80;46.52;101386.09;6380382;22;20006;-78
2021/04/30 06:38:31;;;;;;;5.22;2.10;;;;;;;18.79;46.49;101385.22;6382566;22;20023;-77
2021/04/30 06:40:56;;;;;;;4.30;1.85;;;;;;;18.79;46.51;101384.34;6381822;22;20002;-80
2021/04/30 06:43:22;;;;;;;3.92;1.77;;;;;;;18.80;46.57;101386.09;6379229;22;20002;-81
2021/04/30 06:45:47;;;;;;;4.00;1.77;;;;;;;18.78;46.61;101388.69;6377338;22;20003;-79
2021/04/30 06:48:13;;;;;;;5.65;2.15;;;;;;;18.79;46.31;101386.94;6379726;22;19998;-79
2021/04/30 06:50:39;;;;;;;3.05;1.75;;;;;;;18.77;46.48;101386.06;6377617;22;20018;-79
2021/04/30 06:53:04;;;;;;;4.10;2.00;;;;;;;18.78;46.48;101385.22;6349275;22;20006;-80
2021/04/30 06:55:31;;;;;;;4.40;1.90;;;;;;;18.79;46.50;101392.16;6376691;22;20002;-79
2021/04/30 06:57:57;;;;;;;5.68;1.70;;;;;;;18.79;46.46;101393.06;6374182;22;20031;-79
2021/04/30 07:00:23;;;;;;;4.18;1.90;;;;;;;18.78;46.65;101393.91;6374900;22;20007;-79
2021/04/30 07:02:48;;;;;;;3.88;2.17;;;;;;;18.79;46.58;101394.78;6375656;22;20072;-79
2021/04/30 07:05:14;;;;;;;6.45;1.95;;;;;;;18.80;46.35;101404.34;6372836;22;20007;-80
2021/04/30 07:07:42;;;;;;;3.60;1.80;;;;;;;18.79;46.61;101397.38;6348670;22;20009;-80
2021/04/30 07:13:43;;;;;;;3.38;1.83;;;;;;;18.82;46.28;101400.84;6378066;22;20053;-80
2021/04/30 07:16:09;;;;;;;3.15;1.73;;;;;;;18.83;46.54;101402.56;6383031;22;20010;-78
2021/04/30 07:18:34;;;;;;;4.68;1.95;;;;;;;18.89;46.54;101405.13;6384069;22;20084;-80
2021/04/30 07:24:34;;;;;;;3.40;2.00;;;;;;;19.09;45.84;101404.16;6396542;22;20021;-80
2021/04/30 07:30:24;;;;;;;3.13;1.77;;;;;;;19.24;45.67;101411.88;6395274;22;20025;-89
2021/04/30 07:32:54;;;;;;;3.55;1.70;;;;;;;19.29;45.62;101396.16;6395488;22;20002;-82
2021/04/30 07:35:19;;;;;;;3.83;1.85;;;;;;;19.43;45.41;101402.16;6389367;22;20002;-89
2021/04/30 07:37:44;;;;;;;3.17;1.67;;;;;;;19.62;44.87;101405.50;6381171;22;20335;-90
2021/04/30 07:40:11;;;;;;;3.03;1.60;;;;;;;19.94;44.32;101399.09;6374200;22;19998;-88
2021/04/30 07:42:37;;;;;;;2.88;1.58;;;;;;;20.10;44.49;101397.22;6345309;22;20025;-88
2021/04/30 07:45:03;;;;;;;3.88;1.73;;;;;;;20.13;43.66;101399.78;6374506;22;19998;-91
2021/04/30 07:47:30;;;;;;;2.72;1.45;;;;;;;19.86;44.53;101403.53;6372979;22;20000;-91
2021/04/30 07:49:55;;;;;;;3.28;1.70;;;;;;;19.88;44.22;101397.44;6375285;22;20024;-92
2021/04/30 07:52:21;;;;;;;2.50;1.38;;;;;;;19.66;44.66;101404.59;6375302;22;20437;-86
2021/04/30 07:54:46;;;;;;;2.30;1.45;;;;;;;19.47;45.33;101405.63;6382787;22;20014;-83
2021/04/30 07:57:13;;;;;;;3.00;1.60;;;;;;;19.36;45.39;101400.50;6386417;22;19998;-80
2021/04/30 07:59:38;;;;;;;2.95;1.67;;;;;;;19.32;45.51;101404.00;6389603;22;19998;-82
2021/04/30 08:05:33;;;;;;;3.03;1.70;;;;;;;19.27;45.69;101404.03;6393376;22;20005;-81
2021/04/30 08:11:03;;;;;;;2.83;1.50;;;;;;;19.19;45.95;101403.22;6394362;22;19912;-79
2021/04/30 08:13:31;;;;;;;2.38;1.48;;;;;;;19.17;45.85;101406.72;6394814;22;19998;-81
2021/04/30 08:15:57;;;;;;;2.50;1.52;;;;;;;19.13;45.76;101408.47;6368518;22;20013;-80
2021/04/30 08:18:25;;;;;;;2.55;1.50;;;;;;;19.15;45.86;101409.31;6371195;22;19994;-82
2021/04/30 08:20:51;;;;;;;2.42;1.40;;;;;;;19.19;46.03;101418.00;6343873;22;20010;-79
2021/04/30 08:23:19;;;;;;;3.13;1.50;;;;;;;19.15;46.07;101408.47;6319407;22;20022;-81
2021/04/30 08:25:44;;;;;;;2.22;1.63;;;;;;;19.18;45.96;101416.25;6290036;22;20028;-85
2021/04/30 08:28:11;;;;;;;3.63;1.50;;;;;;;19.15;45.83;101416.31;6306976;22;20019;-86
2021/04/30 08:30:37;;;;;;;2.42;1.55;;;;;;;19.13;45.89;101412.84;6310252;22;20003;-81
2021/04/30 08:33:05;;;;;;;2.97;1.67;;;;;;;19.10;46.04;101419.81;6339045;22;20014;-80
2021/04/30 08:35:32;;;;;;;2.25;1.40;;;;;;;19.07;46.08;101417.19;6366231;22;20007;-79
2021/04/30 08:38:04;;;;;;;2.53;1.45;;;;;;;19.02;46.06;101411.16;6365687;22;19987;-81
2021/04/30 08:43:07;;;;;;;2.30;1.40;;;;;;;19.11;46.37;101418.91;6331972;22;20030;-84
2021/04/30 08:45:38;;;;;;;2.35;1.60;;;;;;;19.11;46.04;101418.91;6277767;22;20082;-80
2021/04/30 08:51:35;;;;;;;2.72;1.33;;;;;;;19.19;45.93;101418.88;6330463;22;20018;-79
2021/04/30 08:54:03;;;;;;;2.13;1.42;;;;;;;19.25;45.72;101424.06;6328929;22;20019;-79
2021/04/30 08:56:29;;;;;;;3.80;1.67;;;;;;;19.28;45.83;101423.16;6333211;22;20026;-79
2021/04/30 09:02:38;;;;;;;3.03;1.40;;;;;;;19.39;45.47;101426.53;6326222;22;20095;-79
2021/04/30 09:50:27;;;;;;;2.28;1.50;;;;;;;19.10;46.13;101439.81;6365282;22;20475;-80
2021/04/30 09:53:17;;;;;;;2.50;1.23;;;;;;;19.13;46.11;101444.13;6292047;22;20453;-80
2021/04/30 09:55:51;;;;;;;2.05;1.40;;;;;;;19.10;45.96;101453.72;6265246;22;20062;-81
2021/04/30 09:58:44;;;;;;;1.63;1.27;;;;;;;19.09;45.97;101458.94;6270054;22;20004;-80
2021/04/30 10:01:47;;;;;;;1.80;1.33;;;;;;;19.06;46.17;101457.22;6303886;22;20027;-81
2021/04/30 10:04:26;;;;;;;2.85;1.70;;;;;;;19.08;45.92;101455.47;6340474;22;20003;-81
2021/04/30 10:07:04;;;;;;;2.40;1.40;;;;;;;19.05;45.99;101458.09;6334450;22;20017;-81
2021/04/30 10:10:03;;;;;;;2.25;1.40;;;;;;;19.05;46.31;101455.50;6366736;22;20019;-80
2021/04/30 10:12:30;;;;;;;2.53;1.40;;;;;;;19.03;46.41;101454.63;6392716;22;20010;-83
2021/04/30 10:14:58;;;;;;;2.47;1.40;;;;;;;19.01;46.07;101448.56;6340588;22;19994;-81
2021/04/30 10:21:29;;;;;;;2.65;1.77;;;;;;;19.03;46.18;101445.91;6395371;22;20040;-81
2021/04/30 10:24:02;;;;;;;2.30;1.40;;;;;;;19.01;46.25;101448.56;6339756;22;20019;-81
2021/04/30 10:26:30;;;;;;;;;;;;;;;19.02;46.21;101449.41;6359892;22;20038;-80
2021/04/30 10:32:49;;;;;;;2.40;1.40;;;;;;;18.99;46.25;101454.63;6359653;22;20029;-80
2021/04/30 10:35:41;;;;;;;2.33;1.42;;;;;;;18.97;45.84;101448.59;6366356;22;20039;-80
2021/04/30 10:38:32;;;;;;;2.67;1.50;;;;;;;18.97;46.36;101448.59;6384875;22;20010;-81
2021/04/30 10:44:48;;;;;;;4.57;1.60;;;;;;;18.97;46.27;101451.19;6387153;22;20013;-82
2021/04/30 10:47:14;;;;;;;2.58;1.70;;;;;;;18.95;46.19;101456.41;6399267;22;20002;-80
2021/04/30 10:49:43;;;;;;;2.17;1.50;;;;;;;18.93;46.42;101452.09;6397036;22;20003;-82
2021/04/30 10:52:27;;;;;;;3.15;1.70;;;;;;;18.94;46.07;101454.66;6396170;22;20441;-80
2021/04/30 10:55:22;;;;;;;2.03;1.40;;;;;;;18.93;46.13;101457.31;6392121;22;20020;-81
2021/04/30 10:58:12;;;;;;;2.05;1.35;;;;;;;18.92;46.26;101456.41;6390835;22;20020;-81
2021/04/30 11:00:41;;;;;;;3.90;1.80;;;;;;;18.89;46.13;101446.00;6391515;22;20006;-80
2021/04/30 11:03:39;;;;;;;1.90;1.40;;;;;;;18.89;46.31;101451.22;6337761;22;20010;-80
2021/04/30 11:09:39;;;;;;;2.42;1.50;;;;;;;18.87;46.32;101452.97;6391243;22;20068;-80
2021/04/30 11:19:46;;;;;;;3.08;1.45;;;;;;;18.88;46.18;101466.00;6391383;22;20021;-81
2021/04/30 11:22:29;;;;;;;2.20;1.35;;;;;;;18.91;46.13;101468.59;6365063;22;20404;-80
2021/04/30 11:24:57;;;;;;;2.40;1.30;;;;;;;18.89;46.31;101461.66;6335591;22;20037;-80
2021/04/30 11:27:53;;;;;;;2.83;1.25;;;;;;;18.92;46.30;101469.44;6385803;22;20429;-80
2021/04/30 11:30:24;;;;;;;2.85;1.30;;;;;;;18.91;46.26;101468.59;6384494;22;19995;-80
2021/04/30 11:32:59;;;;;;;2.38;1.60;;;;;;;18.90;46.16;101469.47;6386566;22;20054;-80
2021/04/30 11:38:07;;;;;;;3.83;1.40;;;;;;;18.87;46.10;101460.78;6346247;22;20025;-80
2021/04/30 11:51:20;;;;;;;2.17;1.63;;;;;;;18.88;46.38;101466.00;6357999;22;20026;-80
2021/04/30 11:53:59;;;;;;;2.63;1.52;;;;;;;18.87;46.41;101468.63;6348605;22;20014;-80
2021/04/30 11:56:37;;;;;;;2.13;1.30;;;;;;;18.89;46.16;101469.47;6349652;22;20005;-80
2021/04/30 11:59:03;;;;;;;1.90;1.38;;;;;;;18.87;46.29;101464.25;6351436;22;20010;-80
2021/04/30 12:01:31;;;;;;;4.07;1.50;;;;;;;18.89;46.28;101469.47;6322253;22;20014;-80
2021/04/30 12:03:57;;;;;;;3.70;1.45;;;;;;;18.89;46.55;101461.66;6347717;22;20015;-80
2021/04/30 12:06:27;;;;;;;3.17;1.60;;;;;;;18.89;46.33;101472.09;6350679;22;20025;-80
2021/04/30 12:08:55;;;;;;;2.10;1.40;;;;;;;18.85;46.47;101471.22;6351493;22;20003;-82
2021/04/30 12:15:20;;;;;;;4.18;1.80;;;;;;;18.81;46.42;101476.47;6353975;22;20009;-80
2021/04/30 12:17:46;;;;;;;2.78;1.42;;;;;;;18.79;46.32;101471.28;6354353;22;19998;-80
2021/04/30 12:20:15;;;;;;;2.20;1.30;;;;;;;18.78;46.49;101472.13;6351052;22;20414;-80
2021/04/30 12:22:47;;;;;;;1.77;1.42;;;;;;;18.77;46.51;101475.59;6374040;22;20010;-80
2021/04/30 12:25:18;;;;;;;3.35;1.23;;;;;;;18.76;46.50;101470.38;6387038;22;19998;-80
2021/04/30 12:27:46;;;;;;;3.25;1.30;;;;;;;18.77;46.63;101474.72;6358302;22;20005;-80
2021/04/30 12:30:13;;;;;;;2.05;1.40;;;;;;;18.78;46.66;101477.34;6386349;22;20006;-81
2021/04/30 12:32:44;;;;;;;1.70;1.30;;;;;;;18.78;46.53;101476.50;6357252;22;20013;-80
2021/04/30 12:35:10;;;;;;;2.45;1.50;;;;;;;18.77;46.62;101477.31;6359055;22;20030;-80
2021/04/30 12:38:00;;;;;;;2.08;1.70;;;;;;;18.79;46.55;101471.28;6389780;22;19998;-80
2021/04/30 12:46:22;;;;;;;2.08;1.30;;;;;;;18.83;46.69;101466.91;6329658;22;20091;-81
2021/04/30 12:55:21;;;;;;;3.67;1.25;;;;;;;18.89;46.50;101474.69;6358284;22;20098;-80
2021/04/30 13:15:45;;;;;;;1.88;1.20;;;;;;;18.96;46.58;101476.38;6359557;22;20076;-80
2021/04/30 13:22:22;;;;;;;1.88;1.10;;;;;;;18.97;46.48;101470.31;6394415;22;20024;-81
2021/04/30 13:48:24;;;;;;;2.88;1.40;;;;;;;19.04;46.77;101463.31;6359703;22;20053;-80
2021/04/30 13:59:03;;;;;;;14.73;3.83;;;;;;;19.07;46.97;101466.75;6398613;22;20051;-79
2021/04/30 14:04:53;;;;;;;12.73;3.45;;;;;;;19.05;47.07;101460.72;6268328;23;20054;-80
2021/04/30 14:07:36;;;;;;;5.72;2.63;;;;;;;19.07;46.84;101463.28;6267824;23;20061;-80
2021/04/30 14:10:12;;;;;;;5.88;2.42;;;;;;;19.09;47.08;101465.00;6266382;23;20003;-80
2021/04/30 14:16:26;;;;;;;5.82;2.38;;;;;;;19.09;46.85;101469.38;6329782;22;20031;-80
2021/04/30 14:22:43;;;;;;;4.35;2.17;;;;;;;19.11;46.76;101462.41;6362063;22;20021;-80
2021/04/30 14:35:16;;;;;;;4.30;2.20;;;;;;;19.11;47.06;101458.03;6352514;22;20059;-81
2021/04/30 14:37:41;;;;;;;5.03;2.10;;;;;;;19.11;46.72;101452.81;6295926;22;20002;-81
2021/04/30 14:40:09;;;;;;;3.50;1.75;;;;;;;19.11;46.92;101463.25;6325500;22;20477;-82
2021/04/30 14:42:34;;;;;;;3.40;2.00;;;;;;;19.09;46.96;101457.19;6324335;22;20003;-81
2021/04/30 14:45:00;;;;;;;4.70;1.90;;;;;;;19.10;46.93;101461.53;6324116;22;20003;-79
2021/04/30 14:54:10;;;;;;;3.83;1.77;;;;;;;19.17;46.80;101457.16;6358486;22;20021;-85
2021/04/30 14:56:55;;;;;;;4.03;1.73;;;;;;;19.20;46.62;101462.34;6306108;22;20062;-81
2021/04/30 14:59:37;;;;;;;2.67;1.60;;;;;;;19.21;46.80;101455.41;6362517;22;20033;-83
2021/04/30 15:05:40;;;;;;;2.60;1.40;;;;;;;19.25;46.68;101464.91;6328534;22;20133;-81
2021/04/30 15:08:42;;;;;;;3.20;1.65;;;;;;;19.26;46.81;101464.06;6366209;22;20034;-80
2021/04/30 15:14:39;;;;;;;3.88;1.40;;;;;;;19.30;46.60;101461.41;6389193;22;20017;-83
2021/04/30 15:17:18;;;;;;;4.28;1.70;;;;;;;19.39;46.61;101459.63;6366326;22;20002;-80
2021/04/30 15:19:43;;;;;;;4.75;1.70;;;;;;;19.38;46.65;101455.25;6381453;22;20071;-80
2021/04/30 15:22:09;;;;;;;2.83;1.60;;;;;;;19.38;46.57;101453.53;6349416;22;20042;-80
2021/04/30 15:24:35;;;;;;;4.20;1.30;;;;;;;19.34;46.67;101449.22;6375740;22;20002;-79
2021/04/30 15:30:22;;;;;;;3.38;1.60;;;;;;;19.28;46.90;101442.28;6391195;22;20020;-81
2021/04/30 15:33:08;;;;;;;3.55;1.60;;;;;;;19.28;46.80;101449.25;6390874;22;20002;-82
2021/04/30 15:35:43;;;;;;;3.60;1.50;;;;;;;19.25;46.96;101447.53;6383890;22;20085;-83
2021/04/30 15:38:28;;;;;;;5.10;1.58;;;;;;;19.25;47.01;101447.53;6327799;22;20030;-80
2021/04/30 15:41:43;;;;;;;4.93;1.60;;;;;;;19.25;46.88;101449.25;6301323;22;20070;-81
2021/04/30 15:44:09;;;;;;;3.63;1.52;;;;;;;19.23;47.00;101446.69;6330919;22;20018;-83
2021/04/30 15:46:51;;;;;;;2.85;1.52;;;;;;;19.22;47.04;101447.53;6284059;22;20010;-83
2021/04/30 15:49:51;;;;;;;4.78;1.60;;;;;;;19.22;46.83;101450.16;6354232;22;20017;-83
2021/04/30 15:52:49;;;;;;;2.10;1.40;;;;;;;19.22;46.89;101446.69;6347504;22;20026;-81
2021/04/30 15:58:03;;;;;;;3.13;1.63;;;;;;;19.16;46.92;101447.56;6389175;22;20019;-81
2021/04/30 16:01:02;;;;;;;4.13;1.45;;;;;;;19.16;47.29;101441.50;6366447;22;20014;-82
2021/04/30 16:03:28;;;;;;;2.42;1.30;;;;;;;19.19;47.03;101446.72;6363514;22;20145;-83
2021/04/30 16:06:04;;;;;;;2.08;1.27;;;;;;;19.19;47.20;101444.09;6355242;22;20014;-79
2021/04/30 16:08:30;;;;;;;3.30;1.77;;;;;;;19.17;47.21;101436.28;6342846;22;20003;-83
2021/04/30 16:11:18;;;;;;;2.90;1.40;;;;;;;19.17;47.11;101444.09;6366489;22;20003;-81
2021/04/30 16:14:20;;;;;;;6.85;1.60;;;;;;;19.17;47.20;101444.09;6341006;22;20021;-84
2021/04/30 16:23:48;;;;;;;6.13;1.40;;;;;;;19.16;47.16;101438.88;6393287;22;20012;-82
2021/04/30 16:40:04;;;;;;;2.85;1.60;;;;;;;19.06;47.65;101441.56;6352148;22;20334;-79
2021/04/30 16:42:31;;;;;;;5.00;1.80;;;;;;;19.08;47.74;101446.78;6297755;22;20003;-82
2021/04/30 16:45:13;;;;;;;3.38;1.40;;;;;;;19.07;47.79;101445.88;6275925;22;20022;-79
2021/04/30 16:51:15;;;;;;;4.07;1.67;;;;;;;19.09;47.94;101445.88;6297259;22;20018;-81
2021/04/30 16:57:42;;;;;;;3.35;1.50;;;;;;;19.08;47.87;101455.47;6299261;22;20049;-80
2021/04/30 17:00:11;;;;;;;4.25;1.90;;;;;;;19.05;48.03;101452.88;6315656;22;20019;-79
2021/04/30 17:02:37;;;;;;;3.38;1.60;;;;;;;19.06;48.11;101456.34;6306986;22;20278;-82
2021/04/30 17:05:04;;;;;;;4.70;1.52;;;;;;;19.05;47.99;101455.50;6357009;22;20030;-79
2021/04/30 17:07:29;;;;;;;2.50;1.60;;;;;;;19.04;48.00;101456.34;6357943;22;20010;-79
2021/04/30 17:13:27;;;;;;;3.25;1.55;;;;;;;19.02;48.19;101452.03;6360457;22;20026;-81
2021/04/30 17:16:03;;;;;;;3.92;1.45;;;;;;;19.01;48.22;101456.38;6360333;22;20026;-81
2021/04/30 17:18:31;;;;;;;6.25;1.73;;;;;;;19.01;48.40;101452.88;6362972;22;20035;-80
2021/04/30 17:24:54;;;;;;;3.80;1.45;;;;;;;19.03;48.31;101456.34;6396016;22;20037;-80
2021/04/30 17:27:25;;;;;;;3.50;1.42;;;;;;;19.03;48.28;101456.34;6395514;22;20023;-79
2021/04/30 17:29:59;;;;;;;3.55;1.70;;;;;;;19.04;48.33;101458.09;6333754;22;20019;-80
2021/04/30 17:36:03;;;;;;;2.95;1.75;;;;;;;19.02;48.33;101454.63;6364250;22;20025;-79
2021/04/30 17:42:05;;;;;;;4.53;1.60;;;;;;;19.01;48.64;101461.59;6364496;22;20048;-79
2021/04/30 17:44:32;;;;;;;7.13;1.60;;;;;;;18.99;48.84;101454.63;6313443;22;20058;-79
2021/04/30 17:56:47;;;;;;;3.95;1.70;;;;;;;18.96;48.63;101465.09;6398904;22;20035;-81
2021/04/30 17:59:50;;;;;;;6.53;1.65;;;;;;;18.95;48.52;101469.47;6357393;22;20068;-82
2021/04/30 18:10:26;;;;;;;3.50;1.70;;;;;;;18.88;48.52;101460.78;6390750;22;20014;-81
2021/04/30 18:13:22;;;;;;;3.30;1.70;;;;;;;18.88;48.46;101466.00;6280608;22;20019;-81
2021/04/30 18:16:03;;;;;;;;;;;;;;;18.89;48.48;101469.47;6267088;22;20031;-81
2021/04/30 18:21:51;;;;;;;5.55;1.73;;;;;;;18.84;48.57;101482.53;6271507;22;20023;-81
2021/04/30 18:33:53;;;;;;;2.28;1.40;;;;;;;18.82;48.55;101473.84;6336285;22;20106;-81